createdAt,value
2018-05-18T00:00:25.971Z,3.36
2018-05-18T00:06:20.929Z,3.73
2018-05-18T00:12:15.952Z,5.19
2018-05-18T00:18:10.907Z,6
2018-05-18T00:24:05.915Z,5.19
2018-05-18T00:30:00.945Z,4.38
2018-05-18T00:35:55.923Z,4.62
2018-05-18T00:41:51.002Z,4.87
2018-05-18T00:47:45.937Z,4.77
2018-05-18T00:53:40.934Z,4.41
2018-05-18T00:59:35.896Z,5.66
2018-05-18T01:05:30.938Z,3.38
2018-05-18T01:11:25.979Z,3.27
2018-05-18T01:17:20.993Z,3.51
2018-05-18T01:23:16.014Z,2.65
2018-05-18T01:29:10.979Z,2.65
2018-05-18T01:35:05.936Z,1.94
2018-05-18T01:41:00.985Z,2.02
2018-05-18T01:46:55.968Z,3.11
2018-05-18T01:52:50.969Z,4.05
2018-05-18T01:58:45.965Z,3.32
2018-05-18T02:04:40.945Z,2.11
2018-05-18T02:10:36.013Z,2.28
2018-05-18T02:16:30.967Z,2.46
2018-05-18T02:22:25.957Z,2.33
2018-05-18T02:28:20.984Z,3.54
2018-05-18T02:34:16.022Z,4.31
2018-05-18T02:40:11.017Z,4.51
2018-05-18T02:46:06.072Z,4.72
2018-05-18T02:52:00.983Z,5.24
2018-05-18T02:57:55.986Z,5.36
2018-05-18T03:03:50.961Z,3.92
2018-05-18T03:09:45.942Z,3.28
2018-05-18T03:15:40.963Z,3.65
2018-05-18T03:21:36.040Z,3.98
2018-05-18T03:27:30.967Z,3.33
2018-05-18T03:33:25.992Z,2.56
2018-05-18T03:39:21.007Z,6.73
2018-05-18T03:45:16.266Z,10.59
2018-05-18T03:51:10.985Z,6.34
2018-05-18T03:57:05.986Z,3.69
2018-05-18T04:03:01.007Z,3.22
2018-05-18T04:08:56.044Z,6.13
2018-05-18T04:14:51.008Z,4.75
2018-05-18T04:20:45.962Z,3.58
2018-05-18T04:26:41.004Z,3.88
2018-05-18T04:32:36.026Z,4
2018-05-18T04:38:31.026Z,2.97
2018-05-18T04:44:26.011Z,3.68
2018-05-18T04:50:21.031Z,3.49
2018-05-18T04:56:15.993Z,3.77
2018-05-18T05:02:10.984Z,5.43
2018-05-18T05:08:06.047Z,4.12
2018-05-18T05:14:00.997Z,2.9
2018-05-18T05:19:55.997Z,3.48
2018-05-18T05:25:51.025Z,2.33
2018-05-18T05:31:46.041Z,3.39
2018-05-18T05:37:41.017Z,7.82
2018-05-18T05:43:36.006Z,12.2
2018-05-18T05:49:31.022Z,14.57
2018-05-18T05:55:26.004Z,14.5
2018-05-18T06:01:21.029Z,13.83
2018-05-18T06:07:16.001Z,13.61
2018-05-18T06:13:11.017Z,11.89
2018-05-18T06:19:05.996Z,11.56
2018-05-18T06:25:01.036Z,10.97
2018-05-18T06:30:56.022Z,11.94
2018-05-18T06:36:51.019Z,12.17
2018-05-18T06:42:46.037Z,13.54
2018-05-18T06:48:41.031Z,14.95
2018-05-18T06:54:36.055Z,13.35
2018-05-18T07:00:31.000Z,17.38
2018-05-18T07:06:26.047Z,13.33
2018-05-18T07:12:21.020Z,15.85
2018-05-18T07:18:16.012Z,14.18
2018-05-18T07:24:11.034Z,13.25
2018-05-18T07:30:06.037Z,16.11
2018-05-18T07:36:01.094Z,10.14
2018-05-18T07:41:56.051Z,9.62
2018-05-18T07:47:51.037Z,9.19
2018-05-18T07:53:46.119Z,9.64
2018-05-18T07:59:41.056Z,13.75
2018-05-18T08:05:36.039Z,8.07
2018-05-18T08:11:31.061Z,7.12
2018-05-18T08:17:26.028Z,6.44
2018-05-18T08:23:21.025Z,6.72
2018-05-18T08:29:16.058Z,6.47
2018-05-18T08:35:11.044Z,6.3
2018-05-18T08:41:06.077Z,5.42
2018-05-18T08:47:01.029Z,4.68
2018-05-18T08:52:56.034Z,3.85
2018-05-18T08:58:51.033Z,4.49
2018-05-18T09:04:46.077Z,4.37
2018-05-18T09:10:41.044Z,3.35
2018-05-18T09:16:36.041Z,2.53
2018-05-18T09:22:31.066Z,2.56
2018-05-18T09:28:26.091Z,1.74
2018-05-18T09:34:21.137Z,1.19
2018-05-18T09:40:16.083Z,1.33
2018-05-18T09:46:11.100Z,1.04
2018-05-18T09:52:06.091Z,1.05
2018-05-18T09:58:01.059Z,1.18
2018-05-18T10:03:56.075Z,1.35
2018-05-18T10:09:51.068Z,1.05
2018-05-18T10:15:46.091Z,1.24
2018-05-18T10:21:41.080Z,0.96
2018-05-18T10:27:36.087Z,1.29
2018-05-18T10:33:31.075Z,1.1
2018-05-18T10:39:26.100Z,1.09
2018-05-18T10:45:21.190Z,1.02
2018-05-18T10:51:16.074Z,1.19
2018-05-18T10:57:11.089Z,1.1
2018-05-18T11:03:06.080Z,1.3
2018-05-18T11:09:01.114Z,1.1
2018-05-18T11:14:56.088Z,0.99
2018-05-18T11:20:51.146Z,1.13
2018-05-18T11:26:46.136Z,0.98
2018-05-18T11:32:41.130Z,1.13
2018-05-18T11:38:36.101Z,1.39
2018-05-18T11:44:31.116Z,1.17
2018-05-18T11:50:26.099Z,1.64
2018-05-18T11:56:21.114Z,1.37
2018-05-18T12:02:16.115Z,1.07
2018-05-18T12:08:11.185Z,1.41
2018-05-18T12:14:06.190Z,1.23
2018-05-18T12:20:01.093Z,1.23
2018-05-18T12:25:56.152Z,1.32
2018-05-18T12:31:51.128Z,1.07
2018-05-18T12:37:46.156Z,1.27
2018-05-18T12:43:41.134Z,1.33
2018-05-18T12:49:36.135Z,1
2018-05-18T12:55:31.129Z,1.12
2018-05-18T13:01:26.839Z,0.92
2018-05-18T13:07:21.115Z,0.74
2018-05-18T13:13:16.124Z,0.84
2018-05-18T13:19:11.144Z,1.28
2018-05-18T13:25:06.192Z,0.98
2018-05-18T13:31:01.202Z,1.04
2018-05-18T13:36:56.134Z,1.03
2018-05-18T13:42:51.138Z,0.97
2018-05-18T13:48:46.188Z,1.02
2018-05-18T13:54:41.146Z,1.03
2018-05-18T14:00:36.175Z,0.81
2018-05-18T14:06:31.310Z,0.89
2018-05-18T14:12:26.171Z,0.9
2018-05-18T14:18:21.172Z,1.14
2018-05-18T14:24:16.179Z,1.11
2018-05-18T14:30:11.255Z,1.07
2018-05-18T14:36:06.223Z,1.2
2018-05-18T14:42:01.169Z,0.95
2018-05-18T14:47:56.199Z,1.07
2018-05-18T14:53:51.215Z,1.13
2018-05-18T14:59:46.224Z,0.97
2018-05-18T15:05:41.290Z,1.14
2018-05-18T15:11:36.184Z,1.07
2018-05-18T15:17:31.215Z,1.11
2018-05-18T15:23:26.175Z,1.16
2018-05-18T15:29:21.187Z,0.9
2018-05-18T15:35:16.199Z,1.07
2018-05-18T15:41:11.178Z,1.03
2018-05-18T15:47:06.306Z,0.87
2018-05-18T15:53:01.201Z,1.02
2018-05-18T15:58:56.286Z,1.24
2018-05-18T16:04:51.214Z,1.43
2018-05-18T16:10:46.255Z,1.37
2018-05-18T16:16:41.215Z,1.36
2018-05-18T16:22:36.269Z,1.09
2018-05-18T16:28:31.236Z,1.22
2018-05-18T16:34:26.231Z,1.22
2018-05-18T16:40:21.215Z,1.11
2018-05-18T16:46:16.228Z,1.13
2018-05-18T16:52:11.218Z,1.13
2018-05-18T16:58:06.304Z,2.3
2018-05-18T17:04:01.234Z,1.29
2018-05-18T17:09:56.309Z,1.15
2018-05-18T17:15:51.230Z,1.3
2018-05-18T17:21:46.224Z,1.37
2018-05-18T17:27:41.245Z,1.71
2018-05-18T17:33:36.260Z,1.77
2018-05-18T17:39:31.231Z,1.12
2018-05-18T17:45:26.330Z,1.16
2018-05-18T17:51:21.262Z,1.05
2018-05-18T17:57:16.231Z,1.16
2018-05-18T18:03:11.255Z,1.12
2018-05-18T18:09:06.266Z,1.18
2018-05-18T18:15:01.236Z,1.43
2018-05-18T18:20:56.274Z,1.53
2018-05-18T18:26:51.326Z,1.37
2018-05-18T18:32:46.316Z,1.73
2018-05-18T18:38:41.328Z,1.58
2018-05-18T18:44:36.301Z,1.56
2018-05-18T18:50:31.288Z,1.8
2018-05-18T18:56:26.268Z,2.1
2018-05-18T19:02:21.301Z,2
2018-05-18T19:08:16.317Z,2.25
2018-05-18T19:14:11.334Z,2.3
2018-05-18T19:20:06.296Z,2.56
2018-05-18T19:26:01.264Z,1.8
2018-05-18T19:31:56.355Z,1.8
2018-05-18T19:37:51.300Z,2.53
2018-05-18T19:43:46.316Z,2.13
2018-05-18T19:49:41.300Z,2.51
2018-05-18T19:55:36.294Z,2.57
2018-05-18T20:01:31.314Z,2.66
2018-05-18T20:07:26.331Z,2.54
2018-05-18T20:13:21.375Z,2.92
2018-05-18T20:19:16.283Z,2.47
2018-05-18T20:25:11.300Z,3.16
2018-05-18T20:31:06.325Z,2.69
2018-05-18T20:37:01.335Z,3.25
2018-05-18T20:42:56.372Z,3.03
2018-05-18T20:48:51.295Z,2.89
2018-05-18T20:54:46.389Z,3.02
2018-05-18T21:00:41.321Z,3.31
2018-05-18T21:06:36.325Z,2.9
2018-05-18T21:12:31.289Z,3.02
2018-05-18T21:18:26.411Z,3.27
2018-05-18T21:24:21.393Z,3.61
2018-05-18T21:30:16.297Z,2.92
2018-05-18T21:36:11.334Z,2.79
2018-05-18T21:42:06.341Z,2.82
2018-05-18T21:48:01.378Z,3.31
2018-05-18T21:53:56.324Z,3.3
2018-05-18T21:59:51.310Z,3.15
2018-05-18T22:05:46.311Z,3.97
2018-05-18T22:11:41.338Z,2.95
2018-05-18T22:17:36.366Z,3.06
2018-05-18T22:23:31.304Z,3.51
2018-05-18T22:29:26.311Z,2.61
2018-05-18T22:35:21.309Z,3.16
2018-05-18T22:41:16.347Z,2.75
2018-05-18T22:47:11.341Z,3.04
2018-05-18T22:53:06.339Z,2.6
2018-05-18T22:59:01.350Z,3.11
2018-05-18T23:04:56.388Z,2.87
2018-05-18T23:10:51.303Z,2.87
2018-05-18T23:16:46.340Z,2.87
2018-05-18T23:22:41.346Z,3.01
2018-05-18T23:28:36.344Z,2.6
2018-05-18T23:34:31.326Z,2.93
2018-05-18T23:40:26.335Z,2.98
2018-05-18T23:46:21.351Z,2.94
2018-05-18T23:52:16.416Z,2.56
2018-05-18T23:58:11.393Z,3.04
